Aérodrome :
LOGIN :

S'inscrire | Disclaimer

   EN    FR    IT 

 










Légende :    VFR   VFR Marginal   IFR   IFR Intensif   IFR Très Intensif
Visi : 
Plafond : 
>= 8 km
>= 3000ft
5 à 8 km
1000 à 3000 ft
1500m à 5 km
500 à 1000 ft
800 à 1500m
200 à 500 ft
< 800m
< 200 ft
Symboles :   Orages  Brouillard  Fortes neiges  Fortes précipitations  Vent > 20 kt
SIGMETs :   Divers  Orages  Givrage  Turbulence  Onde Orograph.  Cendres Volcan.







- Altitude de l'aérodrome : 458 ft
- Voir les cartes d'approche


LFSI - St-Dizier

DERNIER METAR :
  • 100030Z AUTO 27009KT 9999 FEW027 OVC043 07/04 Q1022

METARs EXPIRÉS :
  • 100000Z AUTO 27010KT 9999 BKN026 BKN039 OVC054 08/04 Q1022
  • 092330Z AUTO 27009KT 9999 FEW015/// BKN028/// BKN033/// ///TCU 08/05 Q1021
  • 092300Z AUTO VRB02KT 9999 BKN014/// BKN023/// OVC029/// ///TCU 07/05 Q1021
  • 092230Z AUTO 27007KT 240V300 9999 -RA FEW026/// BKN032/// OVC062/// ///TCU 08/05 Q1021
  • 092200Z AUTO 26007KT 9999 FEW038 OVC058 08/04 Q1020
  • 092130Z AUTO 27006KT CAVOK 08/04 Q1020

TAF TAF LFSI
Valide du 09 à 21h jusqu'au 10 à 21h UTC


092000Z 0921/1021 27010KT 9999 BKN020
TEMPO 0921/1013 4000 -DZ BKN005 BKN015
Pas de NOTAMs connus pour ce terrain.



MET'MAP, la Météo Aéronautique d'un coup d'oeil ! - Copyright ORBIFLY Décembre 2007 - Disclaimer

ORBIFLY MET'MAP TEAM :

Programmation & Développement : Alexandra Zaïnal
Conception & Développement : Baudouin d'Aumeries
Co-Programmation & Développement : Marc-Olivier Méhu
Soutien technique & logistique : Manuel Goepfert

Contact : metmap@orbifly.com




SOURCES & CREDITS :

   NOAA